createdAt,value
2023-02-14T04:41:17.734Z,1.46
2023-02-14T04:44:21.270Z,1.46
2023-02-14T04:47:23.864Z,0.93
2023-02-14T04:50:27.129Z,0.93
2023-02-14T04:53:29.936Z,1.09
2023-02-14T04:56:33.233Z,1.20
2023-02-14T04:59:35.850Z,1.33
2023-02-14T05:02:39.067Z,1.25
2023-02-14T05:05:41.748Z,1.10
2023-02-14T05:08:45.245Z,0.96
2023-02-14T05:11:48.340Z,0.86
2023-02-14T05:14:51.410Z,0.72
2023-02-14T05:17:54.146Z,0.66
2023-02-14T05:20:57.539Z,0.72
2023-02-14T05:24:01.210Z,0.77
2023-02-14T05:27:04.256Z,0.77
2023-02-14T05:30:07.798Z,0.71
2023-02-14T05:33:11.053Z,0.69
2023-02-14T05:36:13.742Z,0.76
2023-02-14T05:39:16.810Z,0.72
2023-02-14T05:42:19.524Z,0.69
2023-02-14T05:45:23.119Z,0.70
2023-02-14T05:48:25.870Z,0.69
2023-02-14T05:51:29.232Z,0.69
2023-02-14T05:54:32.163Z,0.68
2023-02-14T05:57:35.598Z,0.56
2023-02-14T06:00:40.721Z,0.50
2023-02-14T06:03:46.078Z,0.45
2023-02-14T06:06:48.706Z,0.45
2023-02-14T06:09:51.579Z,0.48
2023-02-14T06:12:54.656Z,0.52
2023-02-14T06:15:57.670Z,0.62
2023-02-14T06:19:00.396Z,0.74
2023-02-14T06:22:03.819Z,0.83
2023-02-14T06:25:06.560Z,0.95
2023-02-14T06:28:09.411Z,0.97
2023-02-14T06:31:17.603Z,1.00
2023-02-14T06:34:20.622Z,1.10
2023-02-14T06:37:23.471Z,1.24
2023-02-14T06:40:26.316Z,1.40
2023-02-14T06:43:28.848Z,1.52
2023-02-14T06:46:31.961Z,1.68
2023-02-14T06:49:34.937Z,1.83
2023-02-14T06:52:38.491Z,1.98
2023-02-14T06:55:42.955Z,2.16
2023-02-14T06:58:46.871Z,2.36
2023-02-14T07:01:49.713Z,2.51
2023-02-14T07:04:52.529Z,2.63
2023-02-14T07:07:55.229Z,2.80
2023-02-14T07:10:58.744Z,2.95
2023-02-14T07:14:01.788Z,3.11
2023-02-14T07:17:04.781Z,3.23
2023-02-14T07:20:09.427Z,3.41
2023-02-14T07:23:12.427Z,3.50
2023-02-14T07:26:21.148Z,3.72
2023-02-14T07:29:24.739Z,3.86
2023-02-14T07:32:27.790Z,3.99
2023-02-14T07:35:30.911Z,4.18
2023-02-14T07:38:34.374Z,4.30
2023-02-14T07:41:39.442Z,4.37
2023-02-14T07:44:46.560Z,4.53
2023-02-14T07:47:51.898Z,4.64
2023-02-14T07:50:58.120Z,4.88
2023-02-14T07:54:01.433Z,5.35
2023-02-14T07:57:04.857Z,5.73
2023-02-14T08:00:08.716Z,5.77
2023-02-14T08:03:15.388Z,5.69
2023-02-14T08:06:19.817Z,5.73
2023-02-14T08:09:25.541Z,5.80
2023-02-14T08:12:47.097Z,5.90
2023-02-14T08:16:05.722Z,6.16
2023-02-14T08:19:08.947Z,6.51
2023-02-14T08:22:11.640Z,6.84
2023-02-14T08:25:14.531Z,6.69
2023-02-14T08:28:18.396Z,6.49
2023-02-14T08:31:35.226Z,6.38
2023-02-14T08:34:38.907Z,6.24
2023-02-14T08:37:41.683Z,6.21
2023-02-14T08:40:44.277Z,6.25
2023-02-14T08:43:47.222Z,6.42
2023-02-14T08:46:50.260Z,6.48
2023-02-14T08:49:53.248Z,6.60
2023-02-14T08:52:56.984Z,6.62
2023-02-14T08:56:20.225Z,6.73
2023-02-14T08:59:23.016Z,6.98
2023-02-14T09:02:25.925Z,7.41
2023-02-14T09:05:28.668Z,7.72
2023-02-14T09:08:31.782Z,7.66
2023-02-14T09:11:34.902Z,7.53
2023-02-14T09:14:44.114Z,7.49
2023-02-14T09:17:47.692Z,7.37
2023-02-14T09:20:51.503Z,7.43
2023-02-14T09:23:55.001Z,7.36
2023-02-14T09:26:58.409Z,7.24
2023-02-14T09:30:01.507Z,7.41
2023-02-14T09:33:05.437Z,7.55
2023-02-14T09:36:11.434Z,7.75
2023-02-14T09:39:16.483Z,7.92
2023-02-14T09:42:41.575Z,7.99
2023-02-14T09:45:54.828Z,7.90
2023-02-14T09:48:58.440Z,8.01
2023-02-14T09:52:03.797Z,8.12
2023-02-14T09:55:15.620Z,8.15
2023-02-14T09:58:36.112Z,8.15
2023-02-14T10:01:46.106Z,8.08
2023-02-14T10:05:00.794Z,7.74
2023-02-14T10:08:37.997Z,7.86
2023-02-14T10:11:45.791Z,8.05
2023-02-14T10:14:50.243Z,8.19
2023-02-14T10:18:02.820Z,8.32
2023-02-14T10:21:08.034Z,8.36
2023-02-14T10:24:37.128Z,8.42
2023-02-14T10:27:45.144Z,8.38
2023-02-14T10:31:14.179Z,8.33
2023-02-14T10:34:35.607Z,8.41
2023-02-14T10:37:48.269Z,8.50
2023-02-14T10:41:21.830Z,8.54
2023-02-14T10:44:34.302Z,8.52
2023-02-14T10:47:58.841Z,8.46
2023-02-14T10:51:11.281Z,8.68
2023-02-14T10:54:23.028Z,8.71
2023-02-14T10:57:34.444Z,8.76
2023-02-14T11:00:51.032Z,8.87
2023-02-14T11:04:04.336Z,8.79
2023-02-14T11:07:19.866Z,8.67
2023-02-14T11:10:27.095Z,8.64
2023-02-14T11:13:38.694Z,8.58
2023-02-14T11:16:42.193Z,8.51
2023-02-14T11:19:58.013Z,8.41
2023-02-14T11:23:00.925Z,8.41
2023-02-14T11:26:08.901Z,8.67
2023-02-14T11:29:16.354Z,8.66
2023-02-14T11:32:25.281Z,8.84
2023-02-14T11:35:34.639Z,8.87
2023-02-14T11:38:40.056Z,8.99
2023-02-14T11:41:52.364Z,9.18
2023-02-14T11:44:58.581Z,9.30
2023-02-14T11:48:39.474Z,9.33
2023-02-14T11:51:45.463Z,9.28
2023-02-14T11:54:51.860Z,9.23
2023-02-14T11:57:55.803Z,9.31
2023-02-14T12:01:00.355Z,9.42
2023-02-14T12:04:15.326Z,9.34
2023-02-14T12:07:21.697Z,9.48
2023-02-14T12:10:35.379Z,9.65
2023-02-14T12:13:38.395Z,9.68
2023-02-14T12:16:51.327Z,9.64
2023-02-14T12:20:03.525Z,9.71
2023-02-14T12:23:23.571Z,9.54
2023-02-14T12:26:35.174Z,9.66
2023-02-14T12:29:56.347Z,9.59
2023-02-14T12:33:00.313Z,9.42
2023-02-14T12:36:10.357Z,9.62
2023-02-14T12:39:36.505Z,9.78
2023-02-14T12:43:18.390Z,10.00
2023-02-14T12:46:45.226Z,10.20
2023-02-14T12:50:03.430Z,10.05
2023-02-14T12:53:15.413Z,10.12
2023-02-14T12:56:24.670Z,10.43
2023-02-14T12:59:46.193Z,10.68
2023-02-14T13:02:49.445Z,10.53
2023-02-14T13:06:04.264Z,10.51
2023-02-14T13:09:38.187Z,10.40
2023-02-14T13:13:00.428Z,10.28
2023-02-14T13:16:21.347Z,10.43
2023-02-14T13:19:45.323Z,10.66
2023-02-14T13:22:49.262Z,10.80
2023-02-14T13:26:07.595Z,10.79
2023-02-14T13:29:16.535Z,10.86
2023-02-14T13:32:25.890Z,10.85
2023-02-14T13:35:31.283Z,11.03
2023-02-14T13:38:40.749Z,11.64
2023-02-14T13:41:44.416Z,11.96
2023-02-14T13:44:50.065Z,12.99
2023-02-14T13:48:09.074Z,13.67
2023-02-14T13:51:11.769Z,15.12
2023-02-14T13:54:45.170Z,16.80
2023-02-14T13:58:02.748Z,19.35
2023-02-14T14:01:27.248Z,22.37
2023-02-14T14:04:31.901Z,25.77
2023-02-14T14:07:34.717Z,27.33
2023-02-14T14:10:47.190Z,28.56
2023-02-14T14:13:58.027Z,28.66
2023-02-14T14:17:01.269Z,29.32
2023-02-14T14:20:27.750Z,27.76
2023-02-14T14:23:35.149Z,27.73
2023-02-14T14:26:49.247Z,26.58
2023-02-14T14:30:07.384Z,27.79
2023-02-14T14:33:17.468Z,28.75
2023-02-14T14:36:23.868Z,28.88
2023-02-14T14:39:32.366Z,29.41
2023-02-14T14:42:40.728Z,29.17
2023-02-14T14:45:46.559Z,29.24
2023-02-14T14:48:54.474Z,29.46
2023-02-14T14:51:57.577Z,26.47
2023-02-14T14:55:02.394Z,23.90
2023-02-14T14:58:10.819Z,23.06
2023-02-14T15:01:47.391Z,20.98
2023-02-14T15:04:50.234Z,18.92
2023-02-14T15:07:53.404Z,17.14
2023-02-14T15:11:41.069Z,16.20
2023-02-14T15:14:51.336Z,14.86
2023-02-14T15:17:56.045Z,14.11
2023-02-14T15:20:59.816Z,13.55
2023-02-14T15:24:03.254Z,12.94
2023-02-14T15:27:16.996Z,12.51
2023-02-14T15:30:26.055Z,12.01
2023-02-14T15:33:31.681Z,11.62
2023-02-14T15:36:35.417Z,11.29
2023-02-14T15:39:49.239Z,10.73
2023-02-14T15:42:59.077Z,10.21
2023-02-14T15:46:28.226Z,9.73
2023-02-14T15:49:37.537Z,9.22
2023-02-14T15:52:41.413Z,8.73
2023-02-14T15:55:44.604Z,8.36
2023-02-14T15:58:49.632Z,7.93
2023-02-14T16:02:00.130Z,7.66
2023-02-14T16:05:24.885Z,7.36
2023-02-14T16:08:30.336Z,7.09
2023-02-14T16:11:38.255Z,6.87
2023-02-14T16:14:45.733Z,6.63
2023-02-14T16:17:49.351Z,6.49
2023-02-14T16:20:51.991Z,6.24
2023-02-14T16:24:08.122Z,6.25
2023-02-14T16:27:13.328Z,6.22
2023-02-14T16:30:20.080Z,5.95
2023-02-14T16:33:28.865Z,5.90
2023-02-14T16:36:34.092Z,5.69
2023-02-14T16:39:39.380Z,5.47
2023-02-14T16:42:43.523Z,5.34
2023-02-14T16:45:46.699Z,5.20
2023-02-14T16:48:52.476Z,5.06
